Time;durP1;ratioP1;P1;durP2;ratioP2;P2;SDS_P1;SDS_P2;PMS_P1;PMS_P2;Temp;Humidity;BMP_temperature;BMP_pressure;BME280_temperature;BME280_humidity;BME280_pressure;Samples;Min_cycle;Max_cycle;Signal;HPM_P1;HPM_P2
2021/10/16 00:01:28;;;;;;;13.73;4.13;;;;;;;-145.18;0.00;102943.50;5060190;28;20033;-67
2021/10/16 00:03:54;;;;;;;20.53;4.63;;;;;;;-145.18;0.00;102943.50;5055440;28;20214;-67
2021/10/16 00:06:19;;;;;;;11.77;4.03;;;;;;;-145.18;0.00;102943.50;5059896;28;20037;-67
2021/10/16 00:08:45;;;;;;;17.57;4.17;;;;;;;-145.18;0.00;102943.50;5051375;28;20025;-67
2021/10/16 00:11:12;;;;;;;20.20;3.83;;;;;;;-145.18;0.00;102943.50;5059422;28;20432;-67
2021/10/16 00:13:38;;;;;;;18.80;4.13;;;;;;;-145.18;0.00;102943.50;5047865;28;20021;-67
2021/10/16 00:16:05;;;;;;;16.07;3.77;;;;;;;-145.18;0.00;102943.50;5055972;28;20814;-67
2021/10/16 00:18:32;;;;;;;14.73;4.60;;;;;;;-145.18;0.00;102943.50;5061906;28;20035;-67
2021/10/16 00:20:58;;;;;;;20.93;4.17;;;;;;;-145.18;0.00;102943.50;5051967;28;20348;-67
2021/10/16 00:23:24;;;;;;;10.63;3.90;;;;;;;-145.18;0.00;102943.50;5055687;28;20028;-67
2021/10/16 00:25:50;;;;;;;12.47;3.77;;;;;;;-145.18;0.00;102943.50;5049632;28;20290;-67
2021/10/16 00:28:15;;;;;;;18.37;4.07;;;;;;;-145.18;0.00;102943.50;5058173;28;20186;-67
2021/10/16 00:30:41;;;;;;;19.27;4.67;;;;;;;-145.18;0.00;102943.50;5047389;28;20028;-67
2021/10/16 00:33:06;;;;;;;16.50;4.23;;;;;;;-145.18;0.00;102943.50;5057110;28;20116;-67
2021/10/16 00:35:32;;;;;;;16.37;4.83;;;;;;;-145.18;0.00;102943.50;5048092;28;20461;-67
2021/10/16 00:37:57;;;;;;;18.70;4.40;;;;;;;-145.18;0.00;102943.50;5045769;28;20381;-67
2021/10/16 00:40:23;;;;;;;17.57;4.07;;;;;;;-145.18;0.00;102943.50;5048172;28;20078;-67
2021/10/16 00:42:50;;;;;;;17.63;3.80;;;;;;;-145.18;0.00;102943.50;5060204;28;20032;-67
2021/10/16 00:45:18;;;;;;;10.90;3.83;;;;;;;-145.18;0.00;102943.50;5045153;28;20285;-67
2021/10/16 00:47:44;;;;;;;18.20;4.47;;;;;;;-145.18;0.00;102943.50;5042818;28;20039;-67
2021/10/16 00:50:10;;;;;;;16.87;4.30;;;;;;;-145.18;0.00;102943.50;5048756;28;20281;-67
2021/10/16 00:52:38;;;;;;;14.63;3.77;;;;;;;-145.18;0.00;102943.50;5045719;28;20313;-67
2021/10/16 00:55:06;;;;;;;19.97;4.40;;;;;;;-145.18;0.00;102943.50;5051204;28;20636;-67
2021/10/16 00:57:32;;;;;;;17.00;4.77;;;;;;;-145.18;0.00;102943.50;5056216;28;20048;-67
2021/10/16 00:59:57;;;;;;;17.87;4.17;;;;;;;-145.18;0.00;102943.50;5054475;28;20272;-67
2021/10/16 01:02:23;;;;;;;15.83;3.90;;;;;;;-145.18;0.00;102943.50;5086803;22;20039;-68
2021/10/16 01:04:49;;;;;;;14.87;4.80;;;;;;;-145.18;0.00;102943.50;5118334;27;20223;-68
2021/10/16 01:07:14;;;;;;;12.37;4.13;;;;;;;-145.18;0.00;102943.50;5105989;27;20019;-69
2021/10/16 01:09:47;;;;;;;18.77;4.93;;;;;;;-145.18;0.00;102943.50;5109195;27;20026;-68
2021/10/16 01:12:13;;;;;;;;;;;;;;;-145.18;0.00;102943.50;5120398;27;20027;-68
2021/10/16 01:15:02;;;;;;;25.40;4.40;;;;;;;-145.18;0.00;102943.50;5108424;27;19922;-69
2021/10/16 01:17:27;;;;;;;17.73;4.37;;;;;;;-145.18;0.00;102943.50;5108147;27;20028;-68
2021/10/16 01:20:03;;;;;;;14.00;4.27;;;;;;;-145.18;0.00;102943.50;5110404;28;20530;-68
2021/10/16 01:22:30;;;;;;;17.37;5.30;;;;;;;-145.18;0.00;102943.50;5099013;28;20031;-68
2021/10/16 01:24:56;;;;;;;16.73;5.50;;;;;;;-145.18;0.00;102943.50;5111982;27;20661;-68
2021/10/16 01:27:22;;;;;;;20.20;4.33;;;;;;;-145.18;0.00;102943.50;5100305;28;20337;-68
2021/10/16 01:29:49;;;;;;;28.80;5.10;;;;;;;-145.18;0.00;102943.50;5111536;28;20023;-68
2021/10/16 01:32:15;;;;;;;18.77;5.37;;;;;;;-145.18;0.00;102943.50;5110466;28;20760;-68
2021/10/16 01:34:41;;;;;;;31.47;5.93;;;;;;;-145.18;0.00;102943.50;5119652;28;20901;-68
2021/10/16 01:37:07;;;;;;;18.13;5.00;;;;;;;-145.18;0.00;102943.50;5118573;27;20272;-68
2021/10/16 01:39:33;;;;;;;15.30;4.87;;;;;;;-145.18;0.00;102943.50;5114300;27;20613;-68
2021/10/16 01:41:58;;;;;;;15.67;4.87;;;;;;;-145.18;0.00;102943.50;5099108;28;20031;-68
2021/10/16 01:44:24;;;;;;;24.67;4.80;;;;;;;-145.18;0.00;102943.50;5107443;28;20023;-68
2021/10/16 01:46:49;;;;;;;22.10;5.33;;;;;;;-145.18;0.00;102943.50;5117530;27;20458;-68
2021/10/16 01:49:17;;;;;;;18.37;4.43;;;;;;;-145.18;0.00;102943.50;5118703;27;20515;-68
2021/10/16 01:51:45;;;;;;;14.43;4.07;;;;;;;-145.18;0.00;102943.50;5098887;28;20209;-68
2021/10/16 01:54:10;;;;;;;21.03;4.90;;;;;;;-145.18;0.00;102943.50;5104500;28;20683;-68
2021/10/16 01:56:36;;;;;;;20.80;6.13;;;;;;;-145.18;0.00;102943.50;5106738;27;20284;-68
2021/10/16 01:59:19;;;;;;;22.93;5.27;;;;;;;-145.18;0.00;102943.50;5108027;27;20191;-68
2021/10/16 02:01:45;;;;;;;16.83;4.90;;;;;;;-145.18;0.00;102943.50;5097958;28;20031;-68
2021/10/16 02:04:12;;;;;;;19.67;5.17;;;;;;;-145.18;0.00;102943.50;5108343;27;20027;-68
2021/10/16 02:06:38;;;;;;;18.97;5.57;;;;;;;-145.18;0.00;102943.50;5098711;28;20036;-68
2021/10/16 02:09:04;;;;;;;23.13;5.00;;;;;;;-145.18;0.00;102943.50;5103952;27;20233;-68
2021/10/16 02:11:30;;;;;;;20.83;4.57;;;;;;;-145.18;0.00;102943.50;5102668;28;20072;-68
2021/10/16 02:13:56;;;;;;;25.63;6.77;;;;;;;-145.18;0.00;102943.50;5109090;27;20462;-68
2021/10/16 02:16:21;;;;;;;24.10;5.27;;;;;;;-145.18;0.00;102943.50;5123019;27;20238;-69
2021/10/16 02:18:47;;;;;;;17.30;4.70;;;;;;;-145.18;0.00;102943.50;5122544;27;20031;-69
2021/10/16 02:21:12;;;;;;;15.17;4.20;;;;;;;-145.18;0.00;102943.50;5112750;27;20020;-68
2021/10/16 02:23:37;;;;;;;17.93;5.57;;;;;;;-145.18;0.00;102943.50;5104033;27;20038;-68
2021/10/16 02:26:03;;;;;;;16.77;5.03;;;;;;;-145.18;0.00;102943.50;5113331;27;20024;-68
2021/10/16 02:28:28;;;;;;;17.87;5.00;;;;;;;-145.18;0.00;102943.50;5102997;27;20611;-68
2021/10/16 02:30:54;;;;;;;18.37;4.90;;;;;;;-145.18;0.00;102943.50;5113101;27;20031;-68
2021/10/16 02:33:19;;;;;;;20.17;4.60;;;;;;;-145.18;0.00;102943.50;5102067;28;20046;-68
2021/10/16 02:35:45;;;;;;;21.03;4.40;;;;;;;-145.18;0.00;102943.50;5112727;27;20578;-68
2021/10/16 02:38:10;;;;;;;16.73;4.70;;;;;;;-145.18;0.00;102943.50;5112587;27;20288;-68
2021/10/16 02:40:36;;;;;;;19.00;3.93;;;;;;;-145.18;0.00;102943.50;5111534;27;20512;-68
2021/10/16 02:43:03;;;;;;;23.77;5.70;;;;;;;-145.18;0.00;102943.50;5102141;27;20028;-68
2021/10/16 02:45:29;;;;;;;14.63;4.20;;;;;;;-145.18;0.00;102943.50;5110463;27;20046;-70
2021/10/16 02:47:54;;;;;;;19.97;4.57;;;;;;;-145.18;0.00;102943.50;5118693;27;20031;-68
2021/10/16 02:50:22;;;;;;;17.37;5.07;;;;;;;-145.18;0.00;102943.50;5109764;27;20031;-67
2021/10/16 02:52:49;;;;;;;19.13;5.40;;;;;;;-145.18;0.00;102943.50;5101734;28;20023;-68
2021/10/16 02:55:16;;;;;;;15.57;5.00;;;;;;;-145.18;0.00;102943.50;5107462;27;20037;-69
2021/10/16 02:57:42;;;;;;;13.43;4.17;;;;;;;-145.18;0.00;102943.50;5101535;28;20485;-69
2021/10/16 03:00:08;;;;;;;19.70;5.30;;;;;;;-145.18;0.00;102943.50;5110365;27;20264;-69
2021/10/16 03:02:34;;;;;;;15.47;5.70;;;;;;;-145.18;0.00;102943.50;5101133;27;20058;-69
2021/10/16 03:05:00;;;;;;;17.17;4.70;;;;;;;-145.18;0.00;102943.50;5117214;27;20024;-69
2021/10/16 03:07:26;;;;;;;18.67;4.93;;;;;;;-145.18;0.00;102943.50;5117888;27;20019;-69
2021/10/16 03:09:51;;;;;;;18.30;5.20;;;;;;;-145.18;0.00;102943.50;5111982;27;20414;-69
2021/10/16 03:12:17;;;;;;;18.83;5.63;;;;;;;-145.18;0.00;102943.50;5107731;27;20007;-69
2021/10/16 03:14:42;;;;;;;12.50;4.87;;;;;;;-145.18;0.00;102943.50;5112154;27;20031;-69
2021/10/16 03:17:07;;;;;;;15.03;4.53;;;;;;;-145.18;0.00;102943.50;5100778;28;20041;-69
2021/10/16 03:19:33;;;;;;;22.70;5.07;;;;;;;-145.18;0.00;102943.50;5101377;27;20023;-69
2021/10/16 03:21:59;;;;;;;16.83;4.90;;;;;;;-145.18;0.00;102943.50;5101090;28;20016;-69
2021/10/16 03:24:25;;;;;;;19.23;5.13;;;;;;;-145.18;0.00;102943.50;5105961;27;20031;-69
2021/10/16 03:26:51;;;;;;;16.67;5.23;;;;;;;-145.18;0.00;102943.50;5105434;27;20166;-69
2021/10/16 03:29:16;;;;;;;15.00;4.97;;;;;;;-145.18;0.00;102943.50;5108432;27;20600;-69
2021/10/16 03:31:42;;;;;;;19.97;5.13;;;;;;;-145.18;0.00;102943.50;5105879;27;20028;-69
2021/10/16 03:34:07;;;;;;;18.20;5.20;;;;;;;-145.18;0.00;102943.50;5107352;27;20023;-69
2021/10/16 03:36:33;;;;;;;18.30;5.50;;;;;;;-145.18;0.00;102943.50;5112561;27;20387;-69
2021/10/16 03:38:58;;;;;;;17.67;4.93;;;;;;;-145.18;0.00;102943.50;5109593;27;20027;-69
2021/10/16 03:41:24;;;;;;;23.43;5.53;;;;;;;-145.18;0.00;102943.50;5106000;27;20059;-69
2021/10/16 03:43:49;;;;;;;14.43;5.60;;;;;;;-145.18;0.00;102943.50;5104292;27;20463;-69
2021/10/16 03:46:15;;;;;;;14.67;5.87;;;;;;;-145.18;0.00;102943.50;5129518;27;20035;-69
2021/10/16 03:48:41;;;;;;;19.53;5.93;;;;;;;-145.18;0.00;102943.50;5109575;27;20096;-71
2021/10/16 03:51:07;;;;;;;20.53;5.00;;;;;;;-145.18;0.00;102943.50;5104582;27;20020;-69
2021/10/16 03:53:32;;;;;;;16.80;5.67;;;;;;;-145.18;0.00;102943.50;5101723;27;20020;-69
2021/10/16 03:55:58;;;;;;;16.83;5.37;;;;;;;-145.18;0.00;102943.50;5104467;27;20055;-69
2021/10/16 03:58:23;;;;;;;15.20;5.73;;;;;;;-145.18;0.00;102943.50;5105879;27;20069;-69
2021/10/16 04:00:49;;;;;;;23.40;5.70;;;;;;;-145.18;0.00;102943.50;5113631;27;20268;-69
2021/10/16 04:03:15;;;;;;;21.60;6.23;;;;;;;-145.18;0.00;102943.50;5110724;27;20455;-69
2021/10/16 04:05:41;;;;;;;15.93;5.70;;;;;;;-145.18;0.00;102943.50;5104562;27;20576;-69
2021/10/16 04:08:08;;;;;;;22.43;5.20;;;;;;;-145.18;0.00;102943.50;5099653;28;20053;-69
2021/10/16 04:10:34;;;;;;;25.93;6.27;;;;;;;-145.18;0.00;102943.50;5105124;27;20019;-69
2021/10/16 04:13:02;;;;;;;21.60;5.77;;;;;;;-145.18;0.00;102943.50;5102409;27;20084;-69
2021/10/16 04:15:27;;;;;;;15.70;5.87;;;;;;;-145.18;0.00;102943.50;5101528;27;20032;-69
2021/10/16 04:17:53;;;;;;;14.40;5.23;;;;;;;-145.18;0.00;102943.50;5099752;28;20054;-69
2021/10/16 04:20:21;;;;;;;19.90;6.30;;;;;;;-145.18;0.00;102943.50;5100576;27;20495;-69
2021/10/16 04:22:46;;;;;;;18.23;5.43;;;;;;;-145.18;0.00;102943.50;5108404;27;20034;-69
2021/10/16 04:25:12;;;;;;;16.77;5.50;;;;;;;-145.18;0.00;102943.50;5104444;27;20028;-69
2021/10/16 04:27:37;;;;;;;17.23;6.17;;;;;;;-145.18;0.00;102943.50;5099086;28;20100;-69
2021/10/16 04:30:05;;;;;;;17.60;5.80;;;;;;;-145.18;0.00;102943.50;5112650;27;20023;-69
2021/10/16 04:32:30;;;;;;;20.57;6.13;;;;;;;-145.18;0.00;102943.50;5099638;27;20093;-69
2021/10/16 04:34:56;;;;;;;30.77;5.80;;;;;;;-145.18;0.00;102943.50;5111084;27;20322;-69
2021/10/16 04:37:21;;;;;;;16.90;6.07;;;;;;;-145.18;0.00;102943.50;5110532;27;20023;-69
2021/10/16 04:39:47;;;;;;;20.53;6.20;;;;;;;-145.18;0.00;102943.50;5109494;27;20038;-69
2021/10/16 04:42:12;;;;;;;18.07;6.17;;;;;;;-145.18;0.00;102943.50;5099538;28;20371;-69
2021/10/16 04:44:39;;;;;;;18.93;6.07;;;;;;;-145.18;0.00;102943.50;5109552;27;20030;-69
2021/10/16 04:47:05;;;;;;;22.07;6.77;;;;;;;-145.18;0.00;102943.50;5109246;27;20397;-69
2021/10/16 04:49:32;;;;;;;18.63;5.83;;;;;;;-145.18;0.00;102943.50;5116136;27;20032;-69
2021/10/16 04:51:58;;;;;;;18.57;6.30;;;;;;;-145.18;0.00;102943.50;5102380;27;20068;-69
2021/10/16 04:54:23;;;;;;;21.03;5.87;;;;;;;-145.18;0.00;102943.50;5116504;27;20218;-69
2021/10/16 04:56:49;;;;;;;19.70;5.63;;;;;;;-145.18;0.00;102943.50;5105959;27;20027;-69
2021/10/16 04:59:18;;;;;;;18.17;6.67;;;;;;;-145.18;0.00;102943.50;5107113;27;20038;-69
2021/10/16 05:01:43;;;;;;;18.73;6.17;;;;;;;-145.18;0.00;102943.50;5099123;27;20051;-69
2021/10/16 05:04:08;;;;;;;25.30;6.17;;;;;;;-145.18;0.00;102943.50;5102459;28;20031;-69
2021/10/16 05:06:34;;;;;;;18.57;6.00;;;;;;;-145.18;0.00;102943.50;5099278;28;20420;-69
2021/10/16 05:09:00;;;;;;;16.53;6.07;;;;;;;-145.18;0.00;102943.50;5105500;27;20288;-69
2021/10/16 05:11:26;;;;;;;18.13;6.07;;;;;;;-145.18;0.00;102943.50;5099959;28;20072;-69
2021/10/16 05:13:51;;;;;;;14.63;5.77;;;;;;;-145.18;0.00;102943.50;5105022;28;20613;-69
2021/10/16 05:16:16;;;;;;;16.60;5.70;;;;;;;-145.18;0.00;102943.50;5099260;28;20068;-69
2021/10/16 05:18:42;;;;;;;16.00;5.03;;;;;;;-145.18;0.00;102943.50;5100015;28;20260;-69
2021/10/16 05:21:09;;;;;;;13.63;5.47;;;;;;;-145.18;0.00;102943.50;5103160;27;20069;-69
2021/10/16 05:23:35;;;;;;;11.70;5.70;;;;;;;-145.18;0.00;102943.50;5104816;28;20042;-69
2021/10/16 05:26:01;;;;;;;14.83;6.10;;;;;;;-145.18;0.00;102943.50;5110461;28;20041;-69
2021/10/16 05:28:27;;;;;;;14.87;5.20;;;;;;;-145.18;0.00;102943.50;5100551;28;20099;-69
2021/10/16 05:30:53;;;;;;;14.73;6.00;;;;;;;-145.18;0.00;102943.50;5110401;28;20184;-69
2021/10/16 05:33:18;;;;;;;13.70;5.87;;;;;;;-145.18;0.00;102943.50;5111905;27;20078;-69
2021/10/16 05:35:44;;;;;;;15.43;5.30;;;;;;;-145.18;0.00;102943.50;5110496;28;20387;-69
2021/10/16 05:38:13;;;;;;;21.63;5.40;;;;;;;-145.18;0.00;102943.50;5108506;28;20402;-69
2021/10/16 05:40:40;;;;;;;9.37;4.90;;;;;;;-145.18;0.00;102943.50;5109921;28;20027;-69
2021/10/16 05:43:06;;;;;;;13.40;5.17;;;;;;;-145.18;0.00;102943.50;5110359;27;20035;-69
2021/10/16 05:45:31;;;;;;;22.93;6.53;;;;;;;-145.18;0.00;102943.50;5111935;27;20050;-69
2021/10/16 05:47:57;;;;;;;18.90;6.17;;;;;;;-145.18;0.00;102943.50;5120174;27;20054;-69
2021/10/16 05:50:23;;;;;;;12.23;5.30;;;;;;;-145.18;0.00;102943.50;5112691;27;20595;-69
2021/10/16 05:52:48;;;;;;;18.47;6.23;;;;;;;-145.18;0.00;102943.50;5102971;28;20184;-69
2021/10/16 05:55:14;;;;;;;13.83;5.40;;;;;;;-145.18;0.00;102943.50;5108553;27;20031;-69
2021/10/16 05:57:39;;;;;;;11.57;5.20;;;;;;;-145.18;0.00;102943.50;5102763;28;20091;-69
2021/10/16 06:00:06;;;;;;;13.23;4.73;;;;;;;-145.18;0.00;102943.50;5107029;27;20032;-69
2021/10/16 06:02:31;;;;;;;11.20;5.20;;;;;;;-145.18;0.00;102943.50;5101700;27;20040;-69
2021/10/16 06:04:57;;;;;;;14.60;5.20;;;;;;;-145.18;0.00;102943.50;5105563;27;20038;-69
2021/10/16 06:07:22;;;;;;;12.83;5.70;;;;;;;-145.18;0.00;102943.50;5114739;27;20023;-69
2021/10/16 06:09:48;;;;;;;10.43;4.73;;;;;;;-145.18;0.00;102943.50;5114175;27;20673;-69
2021/10/16 06:12:13;;;;;;;10.50;4.33;;;;;;;-145.18;0.00;102943.50;5101957;28;20028;-69
2021/10/16 06:14:39;;;;;;;15.43;5.57;;;;;;;-145.18;0.00;102943.50;5103205;27;20028;-69
2021/10/16 06:17:04;;;;;;;11.73;5.03;;;;;;;-145.18;0.00;102943.50;5103998;27;20168;-69
2021/10/16 06:19:30;;;;;;;17.43;5.27;;;;;;;-145.18;0.00;102943.50;5118970;27;20155;-69
2021/10/16 06:21:56;;;;;;;18.43;4.83;;;;;;;-145.18;0.00;102943.50;5106156;27;20030;-69
2021/10/16 06:24:21;;;;;;;14.20;5.00;;;;;;;-145.18;0.00;102943.50;5110892;27;20608;-69
2021/10/16 06:26:47;;;;;;;14.33;5.70;;;;;;;-145.18;0.00;102943.50;5106756;27;20345;-69
2021/10/16 06:29:12;;;;;;;17.43;5.63;;;;;;;-145.18;0.00;102943.50;5122060;27;20084;-69
2021/10/16 06:31:38;;;;;;;10.17;4.13;;;;;;;-145.18;0.00;102943.50;5106296;27;20080;-69
2021/10/16 06:34:03;;;;;;;11.90;4.40;;;;;;;-145.18;0.00;102943.50;5108046;27;20027;-69
2021/10/16 06:36:29;;;;;;;12.43;4.23;;;;;;;-145.18;0.00;102943.50;5113274;27;20526;-69
2021/10/16 06:38:54;;;;;;;11.27;4.30;;;;;;;-145.18;0.00;102943.50;5110573;27;20023;-69
2021/10/16 06:41:20;;;;;;;11.23;4.33;;;;;;;-145.18;0.00;102943.50;5107820;27;20120;-69
2021/10/16 06:43:46;;;;;;;13.37;4.27;;;;;;;-145.18;0.00;102943.50;5116612;27;20160;-69
2021/10/16 06:46:11;;;;;;;12.43;4.27;;;;;;;-145.18;0.00;102943.50;5108158;27;20110;-69
2021/10/16 06:48:36;;;;;;;11.67;4.53;;;;;;;-145.18;0.00;102943.50;5121761;27;20023;-69
2021/10/16 06:51:02;;;;;;;16.40;5.10;;;;;;;-145.18;0.00;102943.50;5106407;27;20371;-69
2021/10/16 06:53:27;;;;;;;15.03;4.30;;;;;;;-145.18;0.00;102943.50;5101681;27;20168;-69
2021/10/16 06:55:53;;;;;;;13.60;4.40;;;;;;;-145.18;0.00;102943.50;5105069;28;20023;-69
2021/10/16 06:58:19;;;;;;;11.43;4.60;;;;;;;-145.18;0.00;102943.50;5101565;28;20019;-69
2021/10/16 07:00:44;;;;;;;12.17;4.63;;;;;;;-145.18;0.00;102943.50;5118777;27;20061;-69
2021/10/16 07:03:14;;;;;;;16.10;4.67;;;;;;;-145.18;0.00;102943.50;5100647;28;20047;-69
2021/10/16 07:05:40;;;;;;;9.17;4.07;;;;;;;-145.18;0.00;102943.50;5104241;27;20028;-69
2021/10/16 07:08:06;;;;;;;10.03;4.23;;;;;;;-145.18;0.00;102943.50;5113977;27;20244;-69
2021/10/16 07:10:32;;;;;;;7.97;3.60;;;;;;;-145.18;0.00;102943.50;5107993;27;20487;-69
2021/10/16 07:13:01;;;;;;;6.60;3.33;;;;;;;-145.18;0.00;102943.50;5100983;28;20582;-69
2021/10/16 07:15:26;;;;;;;10.30;4.03;;;;;;;-145.18;0.00;102943.50;5102465;27;20032;-70
2021/10/16 07:17:52;;;;;;;9.53;3.67;;;;;;;-145.18;0.00;102943.50;5110450;27;20033;-69
2021/10/16 07:20:17;;;;;;;7.63;3.43;;;;;;;-145.18;0.00;102943.50;5118823;27;20050;-69
2021/10/16 07:22:43;;;;;;;10.37;3.90;;;;;;;-145.18;0.00;102943.50;5100975;28;20030;-69
2021/10/16 07:25:09;;;;;;;10.73;5.03;;;;;;;-145.18;0.00;102943.50;5115299;27;20027;-69
2021/10/16 07:27:34;;;;;;;9.13;3.40;;;;;;;-145.18;0.00;102943.50;5111716;27;20505;-69
2021/10/16 07:30:00;;;;;;;10.93;3.47;;;;;;;-145.18;0.00;102943.50;5120289;27;20407;-69
2021/10/16 07:32:25;;;;;;;13.07;3.70;;;;;;;-145.18;0.00;102943.50;5101061;27;20146;-69
2021/10/16 07:34:51;;;;;;;11.23;3.43;;;;;;;-145.18;0.00;102943.50;5110622;27;20191;-69
2021/10/16 07:37:16;;;;;;;13.47;3.40;;;;;;;-145.18;0.00;102943.50;5111376;27;20266;-70
2021/10/16 07:39:42;;;;;;;11.80;3.73;;;;;;;-145.18;0.00;102943.50;5109973;27;20636;-70
2021/10/16 07:42:07;;;;;;;7.67;3.10;;;;;;;-145.18;0.00;102943.50;5100764;28;20025;-70
2021/10/16 07:44:33;;;;;;;11.93;3.60;;;;;;;-145.18;0.00;102943.50;5108385;27;20179;-70
2021/10/16 07:46:58;;;;;;;8.60;3.20;;;;;;;-145.18;0.00;102943.50;5109568;27;20298;-70
2021/10/16 07:49:24;;;;;;;11.47;3.40;;;;;;;-145.18;0.00;102943.50;5118482;27;20019;-70
2021/10/16 07:51:49;;;;;;;12.87;3.57;;;;;;;-145.18;0.00;102943.50;5111118;27;20583;-70
2021/10/16 07:54:15;;;;;;;8.67;3.80;;;;;;;-145.18;0.00;102943.50;5105391;27;20027;-70
2021/10/16 07:56:40;;;;;;;11.20;3.63;;;;;;;-145.18;0.00;102943.50;5100466;28;20494;-70
2021/10/16 07:59:06;;;;;;;10.80;3.80;;;;;;;-145.18;0.00;102943.50;5104927;27;20031;-70
2021/10/16 08:01:31;;;;;;;9.47;3.53;;;;;;;-145.18;0.00;102943.50;5101919;27;20632;-70
2021/10/16 08:03:59;;;;;;;6.20;2.57;;;;;;;-145.18;0.00;102943.50;5113323;27;20051;-70
2021/10/16 08:06:25;;;;;;;9.10;3.27;;;;;;;-145.18;0.00;102943.50;5099670;28;20092;-70
2021/10/16 08:08:50;;;;;;;11.10;3.30;;;;;;;-145.18;0.00;102943.50;5118336;27;20034;-70
2021/10/16 08:11:16;;;;;;;8.30;2.70;;;;;;;-145.18;0.00;102943.50;5114343;27;20054;-70
2021/10/16 08:13:41;;;;;;;12.10;3.30;;;;;;;-145.18;0.00;102943.50;5113554;27;20486;-70
2021/10/16 08:16:07;;;;;;;8.83;3.20;;;;;;;-145.18;0.00;102943.50;5099585;28;20096;-70
2021/10/16 08:18:32;;;;;;;10.77;3.47;;;;;;;-145.18;0.00;102943.50;5102109;27;20058;-70
2021/10/16 08:20:58;;;;;;;7.37;3.10;;;;;;;-145.18;0.00;102943.50;5131220;27;20058;-70
2021/10/16 08:23:23;;;;;;;8.57;3.53;;;;;;;-145.18;0.00;102943.50;5122065;27;20420;-70
2021/10/16 08:25:50;;;;;;;9.90;3.37;;;;;;;-145.18;0.00;102943.50;5122589;27;20023;-69
2021/10/16 08:28:16;;;;;;;8.93;3.60;;;;;;;-145.18;0.00;102943.50;5117303;27;20031;-69
2021/10/16 08:30:50;;;;;;;13.03;2.90;;;;;;;-145.18;0.00;102943.50;5108546;27;20031;-70
2021/10/16 08:33:16;;;;;;;8.97;3.17;;;;;;;-145.18;0.00;102943.50;5118393;27;20509;-70
2021/10/16 08:35:42;;;;;;;7.83;3.50;;;;;;;-145.18;0.00;102943.50;5110149;27;20079;-70
2021/10/16 08:38:08;;;;;;;9.30;3.30;;;;;;;-145.18;0.00;102943.50;5113886;27;20282;-70
2021/10/16 08:40:34;;;;;;;6.23;3.07;;;;;;;-145.18;0.00;102943.50;5115177;27;20026;-70
2021/10/16 08:43:00;;;;;;;11.40;3.27;;;;;;;-145.18;0.00;102943.50;5119544;27;20378;-70
2021/10/16 08:45:26;;;;;;;8.20;3.17;;;;;;;-145.18;0.00;102943.50;5105310;27;20031;-70
2021/10/16 08:47:53;;;;;;;7.43;2.83;;;;;;;-145.18;0.00;102943.50;5111153;27;20102;-70
2021/10/16 08:50:19;;;;;;;8.57;3.20;;;;;;;-145.18;0.00;102943.50;5113431;27;20038;-70
2021/10/16 08:52:45;;;;;;;7.53;2.93;;;;;;;-145.18;0.00;102943.50;5105189;27;20031;-70
2021/10/16 08:55:13;;;;;;;9.43;3.07;;;;;;;-145.18;0.00;102943.50;5110756;27;20497;-70
2021/10/16 08:57:42;;;;;;;10.20;3.20;;;;;;;-145.18;0.00;102943.50;5110700;27;20303;-70
2021/10/16 09:00:44;;;;;;;11.47;3.37;;;;;;;-145.18;0.00;102943.50;5108644;27;20503;-70
2021/10/16 09:03:41;;;;;;;8.47;3.03;;;;;;;-145.18;0.00;102943.50;5099759;27;20087;-70
2021/10/16 09:06:35;;;;;;;9.43;3.17;;;;;;;-145.18;0.00;102943.50;5132316;27;20035;-70
2021/10/16 09:09:12;;;;;;;9.17;3.20;;;;;;;-145.18;0.00;102943.50;5113151;27;20668;-70
2021/10/16 09:11:45;;;;;;;7.07;2.90;;;;;;;-145.18;0.00;102943.50;5121744;27;20029;-70
2021/10/16 09:14:19;;;;;;;10.20;2.90;;;;;;;-145.18;0.00;102943.50;5111423;27;20059;-70
2021/10/16 09:16:47;;;;;;;9.60;2.80;;;;;;;-145.18;0.00;102943.50;5113454;27;20103;-70
2021/10/16 09:19:20;;;;;;;8.40;3.33;;;;;;;-145.18;0.00;102943.50;5108187;27;20235;-70
2021/10/16 09:21:54;;;;;;;7.53;2.80;;;;;;;-145.18;0.00;102943.50;5115315;27;20027;-70
2021/10/16 09:24:43;;;;;;;11.67;2.50;;;;;;;-145.18;0.00;102943.50;5132907;27;20410;-70
2021/10/16 09:27:22;;;;;;;4.93;2.33;;;;;;;-145.18;0.00;102943.50;5107150;27;20031;-70
2021/10/16 09:30:00;;;;;;;13.70;3.07;;;;;;;-145.18;0.00;102943.50;5110678;28;20648;-70
2021/10/16 09:32:25;;;;;;;4.87;2.13;;;;;;;-145.18;0.00;102943.50;5111822;28;20031;-70
2021/10/16 09:34:59;;;;;;;7.77;2.77;;;;;;;-145.18;0.00;102943.50;5116502;27;20194;-70
2021/10/16 09:37:24;;;;;;;9.53;2.70;;;;;;;-145.18;0.00;102943.50;5101481;27;20229;-70
2021/10/16 09:39:56;;;;;;;9.47;2.33;;;;;;;-145.18;0.00;102943.50;5114356;27;20035;-70
2021/10/16 09:42:52;;;;;;;8.90;2.30;;;;;;;-145.18;0.00;102943.50;5098650;28;20020;-70
2021/10/16 09:45:20;;;;;;;7.43;2.60;;;;;;;-145.18;0.00;102943.50;5092313;28;20062;-70
2021/10/16 09:47:56;;;;;;;10.17;2.70;;;;;;;-145.18;0.00;102943.50;5098483;28;20023;-70
2021/10/16 09:50:22;;;;;;;7.87;3.13;;;;;;;-145.18;0.00;102943.50;5106753;27;20216;-70
2021/10/16 09:52:52;;;;;;;5.47;2.23;;;;;;;-145.18;0.00;102943.50;5100564;27;20088;-70
2021/10/16 09:55:17;;;;;;;6.43;2.63;;;;;;;-145.18;0.00;102943.50;5106790;28;20162;-70
2021/10/16 09:57:44;;;;;;;7.17;2.47;;;;;;;-145.18;0.00;102943.50;5098229;28;20029;-70
2021/10/16 10:00:11;;;;;;;5.70;2.17;;;;;;;-145.18;0.00;102943.50;5105154;28;20107;-70
2021/10/16 10:02:38;;;;;;;7.20;2.37;;;;;;;-145.18;0.00;102943.50;5098080;28;20039;-70
2021/10/16 10:05:07;;;;;;;12.97;3.37;;;;;;;-145.18;0.00;102943.50;5104305;28;20028;-70
2021/10/16 10:07:34;;;;;;;6.87;2.17;;;;;;;-145.18;0.00;102943.50;5115381;27;20542;-69
2021/10/16 10:10:01;;;;;;;8.00;2.43;;;;;;;-145.18;0.00;102943.50;5125326;27;20112;-70
2021/10/16 10:12:27;;;;;;;7.73;2.07;;;;;;;-145.18;0.00;102943.50;5117048;27;20080;-69
2021/10/16 10:14:54;;;;;;;5.80;1.60;;;;;;;-145.18;0.00;102943.50;5110530;27;20019;-69
2021/10/16 10:17:26;;;;;;;5.93;2.30;;;;;;;-145.18;0.00;102943.50;5106564;27;20095;-69
2021/10/16 10:19:55;;;;;;;12.38;3.33;;;;;;;-145.18;0.00;102943.50;5108008;27;20046;-69
2021/10/16 10:22:21;;;;;;;7.97;2.23;;;;;;;-145.18;0.00;102943.50;5117088;27;20333;-69
2021/10/16 10:24:53;;;;;;;7.23;2.70;;;;;;;-145.18;0.00;102943.50;5120828;27;20125;-69
2021/10/16 10:27:22;;;;;;;8.77;2.30;;;;;;;-145.18;0.00;102943.50;5115108;27;20108;-69
2021/10/16 10:29:50;;;;;;;8.40;2.50;;;;;;;-145.18;0.00;102943.50;5123128;27;20031;-69
2021/10/16 10:32:20;;;;;;;8.33;2.00;;;;;;;-145.18;0.00;102943.50;5119440;27;20102;-69
2021/10/16 10:35:00;;;;;;;4.90;2.10;;;;;;;-145.18;0.00;102943.50;5123994;27;20030;-69
2021/10/16 10:37:45;;;;;;;11.93;2.30;;;;;;;-145.18;0.00;102943.50;5112945;27;20058;-69
2021/10/16 10:40:35;;;;;;;6.00;1.70;;;;;;;-145.18;0.00;102943.50;5109150;27;20047;-69
2021/10/16 10:43:01;;;;;;;5.57;1.93;;;;;;;-145.18;0.00;102943.50;5108980;27;20104;-69
2021/10/16 10:45:36;;;;;;;5.20;2.10;;;;;;;-145.18;0.00;102943.50;5113984;27;20627;-69
2021/10/16 10:48:08;;;;;;;5.43;2.13;;;;;;;-145.18;0.00;102943.50;5123361;27;20031;-70
2021/10/16 10:50:46;;;;;;;5.55;1.90;;;;;;;-145.18;0.00;102943.50;5121830;27;20027;-69
2021/10/16 10:53:22;;;;;;;9.80;2.10;;;;;;;-145.18;0.00;102943.50;5126161;27;20122;-69
2021/10/16 10:55:59;;;;;;;5.63;2.10;;;;;;;-145.18;0.00;102943.50;5118665;27;20566;-69
2021/10/16 10:59:13;;;;;;;7.00;2.20;;;;;;;-145.18;0.00;102943.50;5123134;27;20027;-69
2021/10/16 11:01:52;;;;;;;7.47;2.10;;;;;;;-145.18;0.00;102943.50;5120226;27;20052;-71
2021/10/16 11:04:48;;;;;;;5.50;2.00;;;;;;;-145.18;0.00;102943.50;5104975;27;20039;-69
2021/10/16 11:07:29;;;;;;;7.03;1.90;;;;;;;-145.18;0.00;102943.50;5120294;27;20038;-69
2021/10/16 11:09:55;;;;;;;8.50;1.80;;;;;;;-145.18;0.00;102943.50;5103728;27;20046;-69
2021/10/16 11:12:28;;;;;;;6.53;2.30;;;;;;;-145.18;0.00;102943.50;5109616;27;20746;-69
2021/10/16 11:14:58;;;;;;;4.77;1.93;;;;;;;-145.18;0.00;102943.50;5102884;27;20680;-70